^^

Nearby METAR Reports

METAR (Meteorological Aerodrome Report) are Airport generated local weather condition reports for use, predominantly by pilots, these reports are also used as part of compliment of data sets required for Chatteris Weathers prediction software - WxSim.

EGUN - Mildenhall Raf, United Kingdom
Distance from station: ESE 19mi, 31km
Updated: 08/12/2019 04:56
NOT Current
Overcast
Overcast
 Wind from SW
Wind: SW 25 mph , 41 km/h, Gust: 32 mph , 52 km/h
Temperature: 12°C
Dew Point: 9°C
Humidity: 82%
Barometer: 994.9 hPa
Clouds: Overcast
Visibility: 6 miles , 10 km
Cloud details: Overcast 427 m
2019/12/08 04:56 EGUN 080456Z 22022G28KT 9999 OVC014 12/09 A2938 RMK PK WND 22029/23 SLP953 T01150094 $
EGSC - Cambridge, United Kingdom
Distance from station: SSE 20mi, 32km
Updated: 06/12/2019 17:50
NOT Current
Light rain, Showers, Partly cloudy
Light rain, Showers, Partly cloudy
 Wind from W
Wind: W 17 mph , 28 km/h
Temperature: 10°C
Wind Chill: 7°C
Dew Point: 8°C
Humidity: 88%
Barometer: 1001 hPa
Summary: Light rain, Showers
Clouds: Partly cloudy
Visibility: 6 miles , 9 km
Cloud details: Few Clouds 91 m
Partly cloudy 732 m
2019/12/06 17:50 EGSC 061750Z 27015KT 9000 -SHRA FEW003 SCT024 10/08 Q1001 RESHRA
 
EGUL - Lakenheath Raf, United Kingdom
Distance from station: E 22mi, 36km
Updated: 08/12/2019 05:26
NOT Current
Mostly cloudy
Mostly cloudy
 Wind from SW
Wind: SW 24 mph , 39 km/h, Gust: 32 mph , 52 km/h
Temperature: 12°C
Dew Point: 9°C
Humidity: 82%
Barometer: 994.6 hPa
Clouds: Mostly cloudy
Visibility: 6 miles , 10 km
Cloud details: Partly cloudy 427 m
Mostly cloudy 853 m
2019/12/08 05:26 EGUL 080526Z AUTO 22021G28KT 9999 SCT014 BKN028 12/09 A2937 RMK AO2 CIG 014V028 SLP949 $
EGXT - Wittering Raf, United Kingdom
Distance from station: WNW 24mi, 38km
Updated: 08/12/2019 06:50
Clear
Clear
 Wind from WSW
Wind: WSW 21 mph , 33 km/h
Temperature: 9°C
Wind Chill: 5°C
Dew Point: 5°C
Humidity: 76%
Barometer: 995 hPa
Clouds: Clear
Visibility: 6 miles , 10 km
2019/12/08 06:50 EGXT 080650Z AUTO 25018KT 9999 NCD 09/05 Q0995
 
EGYH - Holbeach (aut), United Kingdom
Distance from station: N 27mi, 44km
Updated: 06/12/2019 10:50
NOT Current
Light drizzle, Overcast
Light drizzle, Overcast
 Wind from WSW
Wind: WSW 20 mph , 31 km/h
Temperature: 11°C
Dew Point: 11°C
Humidity: 100%
Barometer: 1000 hPa
Summary: Light Drizzle
Clouds: Overcast
Visibility: 6 miles , 10 km
Cloud details: Mostly cloudy 183 m
Overcast 549 m
2019/12/06 10:50 EGYH 061050Z 24017KT 9999 -DZ BKN006 OVC018 11/11 Q1000 RMK YLO1
EGSS - Stansted Airport, United Kingdom
Distance from station: SE 11mi, 18km
Updated: 08/12/2019 06:50
Clear
Clear
 Wind from WSW
Wind: WSW 17 mph , 28 km/h
Temperature: 10°C
Wind Chill: 7°C
Dew Point: 7°C
Humidity: 82%
Barometer: 998 hPa
Clouds: Clear
Visibility: 6 miles , 10 km
2019/12/08 06:50 EGSS 080650Z AUTO 24015KT 9999 NCD 10/07 Q0998
 
EGGW - Luton Airport, United Kingdom
Distance from station: WSW 19mi, 31km
Updated: 08/12/2019 06:50
Partly cloudy
Partly cloudy
 Wind from WSW
Wind: WSW 22 mph , 35 km/h, Gust: 35 mph , 56 km/h
Temperature: 9°C
Wind Chill: 5°C
Dew Point: 7°C
Humidity: 87%
Barometer: 998 hPa
Clouds: Partly cloudy
Visibility: 6 miles , 10 km
Cloud details: Partly cloudy 488 m
2019/12/08 06:50 EGGW 080650Z AUTO 24019G30KT 9999 SCT016 09/07 Q0998
EGLL - London/Heathrow, United Kingdom
Distance from station: SSW 41mi, 66km
Updated: 08/12/2019 06:50
Clear
Clear
 Wind from WSW
Wind: WSW 21 mph , 33 km/h
Temperature: 11°C
Dew Point: 6°C
Humidity: 72%
Barometer: 1000 hPa
Clouds: Clear
Visibility: 6 miles , 10 km
2019/12/08 06:50 EGLL 080650Z AUTO 25018KT 9999 NCD 11/06 Q1000 NOSIG
 
EGKK - London/Gatwick A, United Kingdom
Distance from station: S 60mi, 97km
Updated: 08/12/2019 06:50
Few Clouds
Few Clouds
 Wind from W
Wind: W 17 mph , 28 km/h
Temperature: 10°C
Wind Chill: 7°C
Dew Point: 7°C
Humidity: 82%
Barometer: 1001 hPa
Clouds: Few Clouds
Visibility: 6 miles , 10 km
Cloud details: Few Clouds 823 m
2019/12/08 06:50 EGKK 080650Z 26015KT 9999 FEW027 10/07 Q1001
EGUY - Wyton Raf, United Kingdom
Distance from station: SW 11mi, 18km
Updated: 04/10/2015 09:50
NOT Current
Haze, Clear
Haze, Clear
 Wind from SSE
Wind: SSE 2 mph , 4 km/h
Temperature: 11°C
Dew Point: 7°C
Humidity: 77%
Barometer: 1014 hPa
Summary: Haze
Clouds: Clear
Visibility: 4 miles , 6 km
2015/10/04 08:50 EGUY 040850Z 15002KT 6000 HZ SKC 11/07 Q1014 WHT

Met Office METAR data link, decoding METAR data code.